sensor_id;sensor_type;location;lat;lon;timestamp;P1;durP1;ratioP1;P2;durP2;ratioP2
57605;SDS011;43430;48.204;11.556;2022-07-23T00:01:57;8.07;;;6.03;;
57605;SDS011;43430;48.204;11.556;2022-07-23T00:04:23;7.75;;;5.22;;
57605;SDS011;43430;48.204;11.556;2022-07-23T00:06:48;15.38;;;5.88;;
57605;SDS011;43430;48.204;11.556;2022-07-23T00:09:13;6.72;;;5.07;;
57605;SDS011;43430;48.204;11.556;2022-07-23T00:11:39;6.57;;;5.43;;
57605;SDS011;43430;48.204;11.556;2022-07-23T00:14:04;6.57;;;5.00;;
57605;SDS011;43430;48.204;11.556;2022-07-23T00:16:29;6.82;;;5.38;;
57605;SDS011;43430;48.204;11.556;2022-07-23T00:18:54;6.13;;;4.82;;
57605;SDS011;43430;48.204;11.556;2022-07-23T00:21:20;7.63;;;5.47;;
57605;SDS011;43430;48.204;11.556;2022-07-23T00:23:45;5.15;;;4.53;;
57605;SDS011;43430;48.204;11.556;2022-07-23T00:26:11;6.88;;;5.10;;
57605;SDS011;43430;48.204;11.556;2022-07-23T00:28:36;6.45;;;5.38;;
57605;SDS011;43430;48.204;11.556;2022-07-23T00:31:01;7.00;;;5.28;;
57605;SDS011;43430;48.204;11.556;2022-07-23T00:33:27;6.25;;;5.15;;
57605;SDS011;43430;48.204;11.556;2022-07-23T00:35:52;7.00;;;5.38;;
57605;SDS011;43430;48.204;11.556;2022-07-23T00:38:18;6.38;;;5.20;;
57605;SDS011;43430;48.204;11.556;2022-07-23T00:40:43;7.85;;;5.60;;
57605;SDS011;43430;48.204;11.556;2022-07-23T00:43:08;6.60;;;5.63;;
57605;SDS011;43430;48.204;11.556;2022-07-23T00:45:34;6.95;;;5.13;;
57605;SDS011;43430;48.204;11.556;2022-07-23T00:48:00;6.55;;;5.18;;
57605;SDS011;43430;48.204;11.556;2022-07-23T00:50:26;6.32;;;4.85;;
57605;SDS011;43430;48.204;11.556;2022-07-23T00:52:52;8.88;;;5.38;;
57605;SDS011;43430;48.204;11.556;2022-07-23T00:55:17;7.57;;;5.22;;
57605;SDS011;43430;48.204;11.556;2022-07-23T00:57:43;8.20;;;5.25;;
57605;SDS011;43430;48.204;11.556;2022-07-23T01:00:10;6.30;;;5.13;;
57605;SDS011;43430;48.204;11.556;2022-07-23T01:02:38;6.85;;;4.97;;
57605;SDS011;43430;48.204;11.556;2022-07-23T01:05:04;7.55;;;5.30;;
57605;SDS011;43430;48.204;11.556;2022-07-23T01:07:30;6.78;;;5.47;;
57605;SDS011;43430;48.204;11.556;2022-07-23T01:09:56;8.00;;;4.93;;
57605;SDS011;43430;48.204;11.556;2022-07-23T01:12:22;8.57;;;5.78;;
57605;SDS011;43430;48.204;11.556;2022-07-23T01:14:57;6.68;;;5.72;;
57605;SDS011;43430;48.204;11.556;2022-07-23T01:17:23;13.00;;;5.95;;
57605;SDS011;43430;48.204;11.556;2022-07-23T01:19:48;8.27;;;6.07;;
57605;SDS011;43430;48.204;11.556;2022-07-23T01:22:14;10.40;;;6.40;;
57605;SDS011;43430;48.204;11.556;2022-07-23T01:24:42;9.00;;;6.35;;
57605;SDS011;43430;48.204;11.556;2022-07-23T01:27:07;13.52;;;6.95;;
57605;SDS011;43430;48.204;11.556;2022-07-23T01:29:32;12.75;;;5.70;;
57605;SDS011;43430;48.204;11.556;2022-07-23T01:31:58;10.45;;;5.50;;
57605;SDS011;43430;48.204;11.556;2022-07-23T01:34:23;11.98;;;6.32;;
57605;SDS011;43430;48.204;11.556;2022-07-23T01:36:48;8.15;;;5.43;;
57605;SDS011;43430;48.204;11.556;2022-07-23T01:39:14;8.48;;;4.75;;
57605;SDS011;43430;48.204;11.556;2022-07-23T01:41:39;8.55;;;5.35;;
57605;SDS011;43430;48.204;11.556;2022-07-23T01:44:05;7.25;;;5.50;;
57605;SDS011;43430;48.204;11.556;2022-07-23T01:46:30;15.50;;;5.57;;
57605;SDS011;43430;48.204;11.556;2022-07-23T01:48:56;10.48;;;6.18;;
57605;SDS011;43430;48.204;11.556;2022-07-23T01:51:21;10.93;;;5.45;;
57605;SDS011;43430;48.204;11.556;2022-07-23T01:53:46;7.47;;;4.90;;
57605;SDS011;43430;48.204;11.556;2022-07-23T01:56:12;7.75;;;4.32;;
57605;SDS011;43430;48.204;11.556;2022-07-23T01:58:39;7.68;;;4.50;;
57605;SDS011;43430;48.204;11.556;2022-07-23T02:01:05;10.07;;;6.10;;
57605;SDS011;43430;48.204;11.556;2022-07-23T02:03:30;10.48;;;5.07;;
57605;SDS011;43430;48.204;11.556;2022-07-23T02:05:56;9.50;;;5.38;;
57605;SDS011;43430;48.204;11.556;2022-07-23T02:08:21;9.48;;;5.68;;
57605;SDS011;43430;48.204;11.556;2022-07-23T02:10:47;8.90;;;5.00;;
57605;SDS011;43430;48.204;11.556;2022-07-23T02:13:13;9.80;;;6.80;;
57605;SDS011;43430;48.204;11.556;2022-07-23T02:15:38;9.10;;;5.20;;
57605;SDS011;43430;48.204;11.556;2022-07-23T02:18:04;11.98;;;6.03;;
57605;SDS011;43430;48.204;11.556;2022-07-23T02:20:29;11.02;;;6.97;;
57605;SDS011;43430;48.204;11.556;2022-07-23T02:22:55;11.88;;;7.68;;
57605;SDS011;43430;48.204;11.556;2022-07-23T02:25:20;11.02;;;6.45;;
57605;SDS011;43430;48.204;11.556;2022-07-23T02:27:45;12.45;;;6.43;;
57605;SDS011;43430;48.204;11.556;2022-07-23T02:30:11;12.95;;;7.57;;
57605;SDS011;43430;48.204;11.556;2022-07-23T02:32:37;12.13;;;5.60;;
57605;SDS011;43430;48.204;11.556;2022-07-23T02:35:04;10.38;;;5.65;;
57605;SDS011;43430;48.204;11.556;2022-07-23T02:37:30;11.88;;;6.10;;
57605;SDS011;43430;48.204;11.556;2022-07-23T02:39:56;8.50;;;5.72;;
57605;SDS011;43430;48.204;11.556;2022-07-23T02:42:21;11.75;;;6.38;;
57605;SDS011;43430;48.204;11.556;2022-07-23T02:44:48;8.20;;;5.20;;
57605;SDS011;43430;48.204;11.556;2022-07-23T02:47:15;10.00;;;5.45;;
57605;SDS011;43430;48.204;11.556;2022-07-23T02:49:40;6.82;;;3.67;;
57605;SDS011;43430;48.204;11.556;2022-07-23T02:52:06;7.80;;;4.68;;
57605;SDS011;43430;48.204;11.556;2022-07-23T02:54:31;8.10;;;4.72;;
57605;SDS011;43430;48.204;11.556;2022-07-23T02:56:56;7.50;;;4.90;;
57605;SDS011;43430;48.204;11.556;2022-07-23T02:59:22;9.32;;;4.68;;
57605;SDS011;43430;48.204;11.556;2022-07-23T03:01:47;9.40;;;4.68;;
57605;SDS011;43430;48.204;11.556;2022-07-23T03:04:12;8.85;;;4.93;;
57605;SDS011;43430;48.204;11.556;2022-07-23T03:06:38;8.38;;;4.75;;
57605;SDS011;43430;48.204;11.556;2022-07-23T03:09:04;9.98;;;5.45;;
57605;SDS011;43430;48.204;11.556;2022-07-23T03:11:30;9.30;;;6.05;;
57605;SDS011;43430;48.204;11.556;2022-07-23T03:13:56;9.77;;;5.88;;
57605;SDS011;43430;48.204;11.556;2022-07-23T03:16:21;8.85;;;5.63;;
57605;SDS011;43430;48.204;11.556;2022-07-23T03:18:46;3.55;;;2.33;;
57605;SDS011;43430;48.204;11.556;2022-07-23T03:21:12;7.40;;;3.83;;
57605;SDS011;43430;48.204;11.556;2022-07-23T03:23:37;8.45;;;4.38;;
57605;SDS011;43430;48.204;11.556;2022-07-23T03:26:03;6.65;;;3.88;;
57605;SDS011;43430;48.204;11.556;2022-07-23T03:28:28;7.57;;;4.03;;
57605;SDS011;43430;48.204;11.556;2022-07-23T03:30:54;8.52;;;4.40;;
57605;SDS011;43430;48.204;11.556;2022-07-23T03:33:19;5.60;;;3.80;;
57605;SDS011;43430;48.204;11.556;2022-07-23T03:35:46;6.65;;;4.38;;
57605;SDS011;43430;48.204;11.556;2022-07-23T03:38:12;4.95;;;3.20;;
57605;SDS011;43430;48.204;11.556;2022-07-23T03:40:38;6.80;;;3.72;;
57605;SDS011;43430;48.204;11.556;2022-07-23T03:43:04;6.90;;;4.13;;
57605;SDS011;43430;48.204;11.556;2022-07-23T03:45:30;6.72;;;4.07;;
57605;SDS011;43430;48.204;11.556;2022-07-23T03:47:55;6.03;;;4.05;;
57605;SDS011;43430;48.204;11.556;2022-07-23T03:50:21;7.22;;;4.40;;
57605;SDS011;43430;48.204;11.556;2022-07-23T03:52:46;8.38;;;4.93;;
57605;SDS011;43430;48.204;11.556;2022-07-23T03:55:12;7.57;;;4.90;;
57605;SDS011;43430;48.204;11.556;2022-07-23T03:57:37;7.18;;;5.40;;
57605;SDS011;43430;48.204;11.556;2022-07-23T04:00:03;11.07;;;6.13;;
57605;SDS011;43430;48.204;11.556;2022-07-23T04:02:30;7.88;;;5.40;;
57605;SDS011;43430;48.204;11.556;2022-07-23T04:04:56;8.23;;;5.80;;
57605;SDS011;43430;48.204;11.556;2022-07-23T04:07:21;8.20;;;5.65;;
57605;SDS011;43430;48.204;11.556;2022-07-23T04:09:47;8.00;;;5.07;;
57605;SDS011;43430;48.204;11.556;2022-07-23T04:12:12;7.78;;;4.93;;
57605;SDS011;43430;48.204;11.556;2022-07-23T04:14:38;6.45;;;4.65;;
57605;SDS011;43430;48.204;11.556;2022-07-23T04:17:03;7.50;;;5.10;;
57605;SDS011;43430;48.204;11.556;2022-07-23T04:19:29;6.55;;;4.30;;
57605;SDS011;43430;48.204;11.556;2022-07-23T04:21:55;7.68;;;4.65;;
57605;SDS011;43430;48.204;11.556;2022-07-23T04:24:21;8.48;;;4.90;;
57605;SDS011;43430;48.204;11.556;2022-07-23T04:26:46;8.73;;;5.35;;
57605;SDS011;43430;48.204;11.556;2022-07-23T04:29:11;9.43;;;5.43;;
57605;SDS011;43430;48.204;11.556;2022-07-23T04:31:37;9.40;;;5.25;;
57605;SDS011;43430;48.204;11.556;2022-07-23T04:34:02;6.75;;;5.20;;
57605;SDS011;43430;48.204;11.556;2022-07-23T04:36:28;7.30;;;4.93;;
57605;SDS011;43430;48.204;11.556;2022-07-23T04:38:53;8.43;;;5.47;;
57605;SDS011;43430;48.204;11.556;2022-07-23T04:41:19;9.23;;;5.90;;
57605;SDS011;43430;48.204;11.556;2022-07-23T04:43:45;7.90;;;5.53;;
57605;SDS011;43430;48.204;11.556;2022-07-23T04:46:11;7.85;;;5.20;;
57605;SDS011;43430;48.204;11.556;2022-07-23T04:48:36;8.80;;;5.68;;
57605;SDS011;43430;48.204;11.556;2022-07-23T04:51:02;8.02;;;5.03;;
57605;SDS011;43430;48.204;11.556;2022-07-23T04:53:28;7.70;;;4.65;;
57605;SDS011;43430;48.204;11.556;2022-07-23T04:55:53;8.38;;;5.30;;
57605;SDS011;43430;48.204;11.556;2022-07-23T04:58:19;9.32;;;6.03;;
57605;SDS011;43430;48.204;11.556;2022-07-23T05:00:45;8.02;;;5.43;;
57605;SDS011;43430;48.204;11.556;2022-07-23T05:03:10;7.47;;;5.32;;
57605;SDS011;43430;48.204;11.556;2022-07-23T05:05:36;8.63;;;5.40;;
57605;SDS011;43430;48.204;11.556;2022-07-23T05:08:01;7.90;;;4.78;;
57605;SDS011;43430;48.204;11.556;2022-07-23T05:10:27;7.80;;;5.20;;
57605;SDS011;43430;48.204;11.556;2022-07-23T05:12:52;6.65;;;4.70;;
57605;SDS011;43430;48.204;11.556;2022-07-23T05:15:17;7.03;;;4.50;;
57605;SDS011;43430;48.204;11.556;2022-07-23T05:17:43;6.82;;;4.80;;
57605;SDS011;43430;48.204;11.556;2022-07-23T05:20:08;7.60;;;5.53;;
57605;SDS011;43430;48.204;11.556;2022-07-23T05:22:34;8.00;;;5.10;;
57605;SDS011;43430;48.204;11.556;2022-07-23T05:24:59;7.00;;;5.15;;
57605;SDS011;43430;48.204;11.556;2022-07-23T05:27:24;8.52;;;5.40;;
57605;SDS011;43430;48.204;11.556;2022-07-23T05:29:50;8.02;;;4.65;;
57605;SDS011;43430;48.204;11.556;2022-07-23T05:32:15;8.07;;;5.28;;
57605;SDS011;43430;48.204;11.556;2022-07-23T05:34:41;6.25;;;4.72;;
57605;SDS011;43430;48.204;11.556;2022-07-23T05:37:06;8.38;;;5.22;;
57605;SDS011;43430;48.204;11.556;2022-07-23T05:39:32;9.48;;;5.03;;
57605;SDS011;43430;48.204;11.556;2022-07-23T05:41:57;6.40;;;4.82;;
57605;SDS011;43430;48.204;11.556;2022-07-23T05:44:22;9.65;;;5.50;;
57605;SDS011;43430;48.204;11.556;2022-07-23T05:46:48;8.15;;;5.25;;
57605;SDS011;43430;48.204;11.556;2022-07-23T05:49:13;7.10;;;5.07;;
57605;SDS011;43430;48.204;11.556;2022-07-23T05:51:38;7.72;;;5.00;;
57605;SDS011;43430;48.204;11.556;2022-07-23T05:54:04;5.97;;;4.80;;
57605;SDS011;43430;48.204;11.556;2022-07-23T05:56:29;8.05;;;5.57;;
57605;SDS011;43430;48.204;11.556;2022-07-23T05:58:54;10.77;;;6.57;;
57605;SDS011;43430;48.204;11.556;2022-07-23T06:01:20;8.60;;;6.53;;
57605;SDS011;43430;48.204;11.556;2022-07-23T06:03:45;11.05;;;6.88;;
57605;SDS011;43430;48.204;11.556;2022-07-23T06:06:10;8.25;;;5.60;;
57605;SDS011;43430;48.204;11.556;2022-07-23T06:08:36;7.18;;;5.03;;
57605;SDS011;43430;48.204;11.556;2022-07-23T06:11:01;9.95;;;6.28;;
57605;SDS011;43430;48.204;11.556;2022-07-23T06:13:27;10.93;;;5.75;;
57605;SDS011;43430;48.204;11.556;2022-07-23T06:15:53;8.65;;;5.82;;
57605;SDS011;43430;48.204;11.556;2022-07-23T06:18:18;11.00;;;5.70;;
57605;SDS011;43430;48.204;11.556;2022-07-23T06:20:43;8.77;;;6.18;;
57605;SDS011;43430;48.204;11.556;2022-07-23T06:23:09;7.53;;;6.10;;
57605;SDS011;43430;48.204;11.556;2022-07-23T06:25:35;8.55;;;6.43;;
57605;SDS011;43430;48.204;11.556;2022-07-23T06:28:00;8.32;;;6.18;;
57605;SDS011;43430;48.204;11.556;2022-07-23T06:30:25;7.45;;;5.85;;
57605;SDS011;43430;48.204;11.556;2022-07-23T06:32:51;9.75;;;6.43;;
57605;SDS011;43430;48.204;11.556;2022-07-23T06:35:17;9.80;;;5.88;;
57605;SDS011;43430;48.204;11.556;2022-07-23T06:37:42;8.07;;;6.15;;
57605;SDS011;43430;48.204;11.556;2022-07-23T06:40:08;7.75;;;5.63;;
57605;SDS011;43430;48.204;11.556;2022-07-23T06:42:34;9.40;;;5.97;;
57605;SDS011;43430;48.204;11.556;2022-07-23T06:45:02;8.27;;;6.40;;
57605;SDS011;43430;48.204;11.556;2022-07-23T06:47:28;8.60;;;5.88;;
57605;SDS011;43430;48.204;11.556;2022-07-23T06:49:53;8.43;;;6.07;;
57605;SDS011;43430;48.204;11.556;2022-07-23T06:52:19;9.60;;;5.82;;
57605;SDS011;43430;48.204;11.556;2022-07-23T06:54:44;10.38;;;5.55;;
57605;SDS011;43430;48.204;11.556;2022-07-23T06:57:09;7.15;;;5.70;;
57605;SDS011;43430;48.204;11.556;2022-07-23T06:59:35;6.65;;;5.00;;
57605;SDS011;43430;48.204;11.556;2022-07-23T07:02:05;10.32;;;5.47;;
57605;SDS011;43430;48.204;11.556;2022-07-23T07:04:31;9.15;;;5.55;;
57605;SDS011;43430;48.204;11.556;2022-07-23T07:06:57;8.60;;;5.43;;
57605;SDS011;43430;48.204;11.556;2022-07-23T07:09:22;6.53;;;5.38;;
57605;SDS011;43430;48.204;11.556;2022-07-23T07:11:48;12.55;;;5.88;;
57605;SDS011;43430;48.204;11.556;2022-07-23T07:14:13;9.48;;;5.93;;
57605;SDS011;43430;48.204;11.556;2022-07-23T07:16:39;8.10;;;6.00;;
57605;SDS011;43430;48.204;11.556;2022-07-23T07:19:04;9.20;;;5.35;;
57605;SDS011;43430;48.204;11.556;2022-07-23T07:21:29;7.18;;;5.60;;
57605;SDS011;43430;48.204;11.556;2022-07-23T07:23:55;9.07;;;5.53;;
57605;SDS011;43430;48.204;11.556;2022-07-23T07:26:20;8.55;;;6.35;;
57605;SDS011;43430;48.204;11.556;2022-07-23T07:28:45;10.75;;;5.95;;
57605;SDS011;43430;48.204;11.556;2022-07-23T07:31:11;9.90;;;6.72;;
57605;SDS011;43430;48.204;11.556;2022-07-23T07:33:36;8.52;;;6.10;;
57605;SDS011;43430;48.204;11.556;2022-07-23T07:36:02;10.10;;;6.22;;
57605;SDS011;43430;48.204;11.556;2022-07-23T07:38:27;8.95;;;6.30;;
57605;SDS011;43430;48.204;11.556;2022-07-23T07:40:53;9.32;;;6.45;;
57605;SDS011;43430;48.204;11.556;2022-07-23T07:43:18;10.10;;;6.35;;
57605;SDS011;43430;48.204;11.556;2022-07-23T07:45:44;12.10;;;6.82;;
57605;SDS011;43430;48.204;11.556;2022-07-23T07:48:09;8.23;;;5.97;;
57605;SDS011;43430;48.204;11.556;2022-07-23T07:50:35;8.02;;;5.97;;
57605;SDS011;43430;48.204;11.556;2022-07-23T07:53:00;9.02;;;6.40;;
57605;SDS011;43430;48.204;11.556;2022-07-23T07:55:25;8.15;;;6.00;;
57605;SDS011;43430;48.204;11.556;2022-07-23T07:57:52;12.68;;;6.63;;
57605;SDS011;43430;48.204;11.556;2022-07-23T08:00:17;9.00;;;6.90;;
57605;SDS011;43430;48.204;11.556;2022-07-23T08:02:44;7.47;;;6.32;;
57605;SDS011;43430;48.204;11.556;2022-07-23T08:05:14;8.15;;;5.78;;
57605;SDS011;43430;48.204;11.556;2022-07-23T08:07:43;9.40;;;5.63;;
57605;SDS011;43430;48.204;11.556;2022-07-23T08:10:08;8.38;;;5.72;;
57605;SDS011;43430;48.204;11.556;2022-07-23T08:12:38;14.68;;;7.07;;
57605;SDS011;43430;48.204;11.556;2022-07-23T08:15:04;9.25;;;6.65;;
57605;SDS011;43430;48.204;11.556;2022-07-23T08:17:30;10.75;;;6.53;;
57605;SDS011;43430;48.204;11.556;2022-07-23T08:19:55;9.35;;;6.93;;
57605;SDS011;43430;48.204;11.556;2022-07-23T08:22:21;10.85;;;6.95;;
57605;SDS011;43430;48.204;11.556;2022-07-23T08:24:46;9.30;;;6.18;;
57605;SDS011;43430;48.204;11.556;2022-07-23T08:27:11;9.85;;;7.25;;
57605;SDS011;43430;48.204;11.556;2022-07-23T08:29:37;10.02;;;6.55;;
57605;SDS011;43430;48.204;11.556;2022-07-23T08:32:02;12.75;;;6.82;;
57605;SDS011;43430;48.204;11.556;2022-07-23T08:34:27;7.35;;;5.80;;
57605;SDS011;43430;48.204;11.556;2022-07-23T08:36:53;8.63;;;6.10;;
57605;SDS011;43430;48.204;11.556;2022-07-23T08:39:18;11.15;;;5.97;;
57605;SDS011;43430;48.204;11.556;2022-07-23T08:41:43;9.05;;;5.97;;
57605;SDS011;43430;48.204;11.556;2022-07-23T08:44:09;9.52;;;7.18;;
57605;SDS011;43430;48.204;11.556;2022-07-23T08:46:34;9.02;;;5.85;;
57605;SDS011;43430;48.204;11.556;2022-07-23T08:49:01;8.95;;;6.28;;
57605;SDS011;43430;48.204;11.556;2022-07-23T08:51:27;8.98;;;5.38;;
57605;SDS011;43430;48.204;11.556;2022-07-23T08:53:55;8.32;;;6.18;;
57605;SDS011;43430;48.204;11.556;2022-07-23T08:56:21;8.43;;;5.45;;
57605;SDS011;43430;48.204;11.556;2022-07-23T08:58:47;9.85;;;5.75;;
57605;SDS011;43430;48.204;11.556;2022-07-23T09:01:12;9.85;;;6.40;;
57605;SDS011;43430;48.204;11.556;2022-07-23T09:03:39;7.28;;;5.63;;
57605;SDS011;43430;48.204;11.556;2022-07-23T09:06:05;7.70;;;6.05;;
57605;SDS011;43430;48.204;11.556;2022-07-23T09:08:37;7.63;;;5.57;;
57605;SDS011;43430;48.204;11.556;2022-07-23T09:11:07;11.45;;;6.22;;
57605;SDS011;43430;48.204;11.556;2022-07-23T09:16:14;8.45;;;5.97;;
57605;SDS011;43430;48.204;11.556;2022-07-23T09:18:48;10.02;;;6.78;;
57605;SDS011;43430;48.204;11.556;2022-07-23T09:21:24;9.13;;;5.95;;
57605;SDS011;43430;48.204;11.556;2022-07-23T09:28:58;7.13;;;5.88;;
57605;SDS011;43430;48.204;11.556;2022-07-23T09:34:11;8.50;;;5.90;;
57605;SDS011;43430;48.204;11.556;2022-07-23T09:36:38;8.85;;;5.28;;
57605;SDS011;43430;48.204;11.556;2022-07-23T09:39:05;6.78;;;5.05;;
57605;SDS011;43430;48.204;11.556;2022-07-23T09:41:35;7.65;;;5.20;;
57605;SDS011;43430;48.204;11.556;2022-07-23T09:44:12;8.45;;;6.13;;
57605;SDS011;43430;48.204;11.556;2022-07-23T09:46:42;7.32;;;5.78;;
57605;SDS011;43430;48.204;11.556;2022-07-23T09:49:11;7.43;;;5.82;;
57605;SDS011;43430;48.204;11.556;2022-07-23T09:51:45;8.88;;;5.28;;
57605;SDS011;43430;48.204;11.556;2022-07-23T09:57:00;8.10;;;5.38;;
57605;SDS011;43430;48.204;11.556;2022-07-23T09:59:32;10.20;;;5.25;;
57605;SDS011;43430;48.204;11.556;2022-07-23T10:02:04;8.60;;;5.57;;
57605;SDS011;43430;48.204;11.556;2022-07-23T10:04:34;7.28;;;5.18;;
57605;SDS011;43430;48.204;11.556;2022-07-23T10:07:02;11.60;;;5.88;;
57605;SDS011;43430;48.204;11.556;2022-07-23T10:09:30;7.97;;;5.13;;
57605;SDS011;43430;48.204;11.556;2022-07-23T10:11:58;5.82;;;5.00;;
57605;SDS011;43430;48.204;11.556;2022-07-23T10:14:48;8.18;;;5.13;;
57605;SDS011;43430;48.204;11.556;2022-07-23T10:17:15;8.15;;;5.38;;
57605;SDS011;43430;48.204;11.556;2022-07-23T10:19:40;5.57;;;4.40;;
57605;SDS011;43430;48.204;11.556;2022-07-23T10:22:08;6.20;;;4.28;;
57605;SDS011;43430;48.204;11.556;2022-07-23T10:29:55;5.28;;;3.88;;
57605;SDS011;43430;48.204;11.556;2022-07-23T10:37:47;5.75;;;4.68;;
57605;SDS011;43430;48.204;11.556;2022-07-23T10:40:20;5.93;;;4.07;;
57605;SDS011;43430;48.204;11.556;2022-07-23T10:42:48;5.25;;;4.15;;
57605;SDS011;43430;48.204;11.556;2022-07-23T10:51:06;6.20;;;4.22;;
57605;SDS011;43430;48.204;11.556;2022-07-23T10:59:19;7.30;;;4.30;;
57605;SDS011;43430;48.204;11.556;2022-07-23T11:01:45;7.55;;;4.00;;
57605;SDS011;43430;48.204;11.556;2022-07-23T11:04:11;5.75;;;3.75;;
57605;SDS011;43430;48.204;11.556;2022-07-23T11:09:28;5.75;;;4.13;;
57605;SDS011;43430;48.204;11.556;2022-07-23T11:25:08;4.63;;;3.77;;
57605;SDS011;43430;48.204;11.556;2022-07-23T11:28:10;8.65;;;4.45;;
57605;SDS011;43430;48.204;11.556;2022-07-23T11:30:44;5.55;;;4.22;;
57605;SDS011;43430;48.204;11.556;2022-07-23T11:35:36;6.53;;;4.17;;
57605;SDS011;43430;48.204;11.556;2022-07-23T11:38:06;6.05;;;4.53;;
57605;SDS011;43430;48.204;11.556;2022-07-23T11:40:44;6.15;;;4.43;;
57605;SDS011;43430;48.204;11.556;2022-07-23T11:43:11;5.13;;;4.10;;
57605;SDS011;43430;48.204;11.556;2022-07-23T11:45:42;5.25;;;4.20;;
57605;SDS011;43430;48.204;11.556;2022-07-23T11:48:09;4.45;;;4.03;;
57605;SDS011;43430;48.204;11.556;2022-07-23T11:50:41;6.97;;;4.88;;
57605;SDS011;43430;48.204;11.556;2022-07-23T11:53:06;5.45;;;4.72;;
57605;SDS011;43430;48.204;11.556;2022-07-23T11:55:32;8.85;;;4.47;;
57605;SDS011;43430;48.204;11.556;2022-07-23T11:57:57;5.82;;;4.93;;
57605;SDS011;43430;48.204;11.556;2022-07-23T12:00:25;6.25;;;5.00;;
57605;SDS011;43430;48.204;11.556;2022-07-23T12:02:54;8.38;;;5.20;;
57605;SDS011;43430;48.204;11.556;2022-07-23T12:05:30;7.25;;;5.10;;
57605;SDS011;43430;48.204;11.556;2022-07-23T12:07:57;7.68;;;5.05;;
57605;SDS011;43430;48.204;11.556;2022-07-23T12:10:25;6.93;;;4.88;;
57605;SDS011;43430;48.204;11.556;2022-07-23T12:15:21;6.50;;;4.88;;
57605;SDS011;43430;48.204;11.556;2022-07-23T12:17:51;7.38;;;5.13;;
57605;SDS011;43430;48.204;11.556;2022-07-23T12:20:18;7.32;;;4.68;;
57605;SDS011;43430;48.204;11.556;2022-07-23T12:22:48;6.72;;;5.35;;
57605;SDS011;43430;48.204;11.556;2022-07-23T12:25:25;5.60;;;5.03;;
57605;SDS011;43430;48.204;11.556;2022-07-23T12:30:42;6.47;;;4.80;;
57605;SDS011;43430;48.204;11.556;2022-07-23T12:33:12;7.43;;;5.25;;
57605;SDS011;43430;48.204;11.556;2022-07-23T12:35:42;6.10;;;4.85;;
57605;SDS011;43430;48.204;11.556;2022-07-23T12:38:12;6.75;;;4.95;;
57605;SDS011;43430;48.204;11.556;2022-07-23T12:40:49;6.35;;;4.90;;
57605;SDS011;43430;48.204;11.556;2022-07-23T12:46:02;7.90;;;5.30;;
57605;SDS011;43430;48.204;11.556;2022-07-23T12:48:36;5.93;;;5.05;;
57605;SDS011;43430;48.204;11.556;2022-07-23T12:51:16;8.68;;;5.05;;
57605;SDS011;43430;48.204;11.556;2022-07-23T12:53:48;7.78;;;4.63;;
57605;SDS011;43430;48.204;11.556;2022-07-23T12:56:19;7.85;;;5.30;;
57605;SDS011;43430;48.204;11.556;2022-07-23T12:58:48;7.03;;;4.78;;
57605;SDS011;43430;48.204;11.556;2022-07-23T13:06:29;6.13;;;4.68;;
57605;SDS011;43430;48.204;11.556;2022-07-23T13:09:00;7.25;;;5.53;;
57605;SDS011;43430;48.204;11.556;2022-07-23T13:11:26;7.07;;;4.78;;
57605;SDS011;43430;48.204;11.556;2022-07-23T13:13:52;7.03;;;5.47;;
57605;SDS011;43430;48.204;11.556;2022-07-23T13:16:17;8.40;;;5.00;;
57605;SDS011;43430;48.204;11.556;2022-07-23T13:18:43;8.60;;;5.25;;
57605;SDS011;43430;48.204;11.556;2022-07-23T13:21:08;6.80;;;5.13;;
57605;SDS011;43430;48.204;11.556;2022-07-23T13:23:34;7.03;;;5.22;;
57605;SDS011;43430;48.204;11.556;2022-07-23T13:26:00;7.07;;;5.07;;
57605;SDS011;43430;48.204;11.556;2022-07-23T13:28:25;6.72;;;5.70;;
57605;SDS011;43430;48.204;11.556;2022-07-23T13:30:51;7.25;;;5.57;;
57605;SDS011;43430;48.204;11.556;2022-07-23T13:33:21;7.38;;;5.10;;
57605;SDS011;43430;48.204;11.556;2022-07-23T13:35:48;8.77;;;5.53;;
57605;SDS011;43430;48.204;11.556;2022-07-23T13:38:14;7.15;;;4.95;;
57605;SDS011;43430;48.204;11.556;2022-07-23T13:40:40;7.75;;;5.30;;
57605;SDS011;43430;48.204;11.556;2022-07-23T13:43:08;8.30;;;5.65;;
57605;SDS011;43430;48.204;11.556;2022-07-23T13:45:35;6.95;;;5.68;;
57605;SDS011;43430;48.204;11.556;2022-07-23T13:48:00;6.63;;;5.28;;
57605;SDS011;43430;48.204;11.556;2022-07-23T13:50:26;7.72;;;5.68;;
57605;SDS011;43430;48.204;11.556;2022-07-23T13:52:52;6.75;;;5.55;;
57605;SDS011;43430;48.204;11.556;2022-07-23T13:55:17;6.65;;;5.65;;
57605;SDS011;43430;48.204;11.556;2022-07-23T13:57:43;6.13;;;5.13;;
57605;SDS011;43430;48.204;11.556;2022-07-23T14:00:08;8.40;;;5.47;;
57605;SDS011;43430;48.204;11.556;2022-07-23T14:02:36;7.57;;;6.13;;
57605;SDS011;43430;48.204;11.556;2022-07-23T14:05:03;7.28;;;5.90;;
57605;SDS011;43430;48.204;11.556;2022-07-23T14:07:33;6.93;;;5.93;;
57605;SDS011;43430;48.204;11.556;2022-07-23T14:10:00;8.02;;;6.32;;
57605;SDS011;43430;48.204;11.556;2022-07-23T14:12:25;7.85;;;6.03;;
57605;SDS011;43430;48.204;11.556;2022-07-23T14:14:51;7.07;;;5.55;;
57605;SDS011;43430;48.204;11.556;2022-07-23T14:17:17;6.40;;;5.72;;
57605;SDS011;43430;48.204;11.556;2022-07-23T14:19:43;7.88;;;6.25;;
57605;SDS011;43430;48.204;11.556;2022-07-23T14:22:08;8.25;;;6.05;;
57605;SDS011;43430;48.204;11.556;2022-07-23T14:24:34;7.93;;;5.00;;
57605;SDS011;43430;48.204;11.556;2022-07-23T14:27:00;8.63;;;5.70;;
57605;SDS011;43430;48.204;11.556;2022-07-23T14:29:26;7.72;;;5.35;;
57605;SDS011;43430;48.204;11.556;2022-07-23T14:31:52;6.32;;;5.45;;
57605;SDS011;43430;48.204;11.556;2022-07-23T14:34:17;7.07;;;5.07;;
57605;SDS011;43430;48.204;11.556;2022-07-23T14:36:42;6.50;;;5.20;;
57605;SDS011;43430;48.204;11.556;2022-07-23T14:39:08;7.05;;;5.63;;
57605;SDS011;43430;48.204;11.556;2022-07-23T14:41:34;7.80;;;5.68;;
57605;SDS011;43430;48.204;11.556;2022-07-23T14:44:00;7.30;;;5.35;;
57605;SDS011;43430;48.204;11.556;2022-07-23T14:46:26;6.18;;;5.15;;
57605;SDS011;43430;48.204;11.556;2022-07-23T14:48:52;7.10;;;5.07;;
57605;SDS011;43430;48.204;11.556;2022-07-23T14:51:17;7.13;;;5.55;;
57605;SDS011;43430;48.204;11.556;2022-07-23T14:53:42;9.20;;;6.03;;
57605;SDS011;43430;48.204;11.556;2022-07-23T14:56:08;9.55;;;6.05;;
57605;SDS011;43430;48.204;11.556;2022-07-23T14:58:33;6.47;;;5.38;;
57605;SDS011;43430;48.204;11.556;2022-07-23T15:00:59;8.68;;;5.82;;
57605;SDS011;43430;48.204;11.556;2022-07-23T15:03:24;7.53;;;5.72;;
57605;SDS011;43430;48.204;11.556;2022-07-23T15:05:49;7.90;;;5.32;;
57605;SDS011;43430;48.204;11.556;2022-07-23T15:08:15;6.95;;;5.63;;
57605;SDS011;43430;48.204;11.556;2022-07-23T15:10:42;7.13;;;5.43;;
57605;SDS011;43430;48.204;11.556;2022-07-23T15:13:07;6.45;;;5.07;;
57605;SDS011;43430;48.204;11.556;2022-07-23T15:15:32;7.13;;;5.43;;
57605;SDS011;43430;48.204;11.556;2022-07-23T15:17:58;7.00;;;5.50;;
57605;SDS011;43430;48.204;11.556;2022-07-23T15:20:23;7.22;;;4.90;;
57605;SDS011;43430;48.204;11.556;2022-07-23T15:22:49;6.10;;;5.32;;
57605;SDS011;43430;48.204;11.556;2022-07-23T15:25:15;6.38;;;5.47;;
57605;SDS011;43430;48.204;11.556;2022-07-23T15:27:40;6.28;;;5.18;;
57605;SDS011;43430;48.204;11.556;2022-07-23T15:30:05;6.85;;;5.65;;
57605;SDS011;43430;48.204;11.556;2022-07-23T15:32:31;9.43;;;5.57;;
57605;SDS011;43430;48.204;11.556;2022-07-23T15:34:57;6.53;;;5.65;;
57605;SDS011;43430;48.204;11.556;2022-07-23T15:37:22;6.60;;;5.50;;